Time;durP1;ratioP1;P1;durP2;ratioP2;P2;SDS_P1;SDS_P2;PMS_P1;PMS_P2;Temp;Humidity;BMP_temperature;BMP_pressure;BME280_temperature;BME280_humidity;BME280_pressure;Samples;Min_cycle;Max_cycle;Signal;HPM_P1;HPM_P2
2022/12/19 00:01:34;;;;;;;62.58;24.45;;;;;;;-7.55;68.67;102268.91;6092585;23;21605;-69
2022/12/19 00:04:04;;;;;;;66.05;23.38;;;;;;;-7.75;69.44;102251.59;6092699;23;20034;-69
2022/12/19 00:06:35;;;;;;;62.42;22.90;;;;;;;-7.63;69.45;102255.91;6092221;23;20101;-70
2022/12/19 00:09:03;;;;;;;58.60;22.10;;;;;;;-7.45;68.72;102242.78;6092534;23;20018;-70
2022/12/19 00:11:31;;;;;;;60.05;21.38;;;;;;;-7.71;69.43;102242.03;6092711;23;20102;-70
2022/12/19 00:13:58;;;;;;;61.13;21.95;;;;;;;-7.69;69.27;102240.31;6092625;23;21921;-70
2022/12/19 00:16:28;;;;;;;69.53;22.55;;;;;;;-7.50;69.44;102235.84;6092909;23;20033;-70
2022/12/19 00:18:57;;;;;;;60.75;22.73;;;;;;;-7.95;69.33;102235.16;6086366;23;20019;-68
2022/12/19 00:21:28;;;;;;;57.35;21.48;;;;;;;-7.91;70.28;102250.81;6063353;23;20519;-69
2022/12/19 00:23:55;;;;;;;52.70;19.58;;;;;;;-7.86;69.97;102256.84;6053402;23;20410;-69
2022/12/19 00:26:25;;;;;;;58.97;20.88;;;;;;;-7.72;69.99;102240.31;6064756;23;20027;-68
2022/12/19 00:28:55;;;;;;;58.58;20.75;;;;;;;-7.68;69.80;102236.81;6064039;23;20025;-68
2022/12/19 00:31:23;;;;;;;65.18;23.35;;;;;;;-7.75;69.42;102235.97;6063940;23;20031;-68
2022/12/19 00:33:50;;;;;;;56.28;20.75;;;;;;;-7.66;69.03;102228.13;6063575;23;20102;-69
2022/12/19 00:36:22;;;;;;;57.30;21.67;;;;;;;-7.72;69.62;102225.53;6063920;23;20511;-69
2022/12/19 00:38:50;;;;;;;58.70;21.02;;;;;;;-7.83;69.92;102229.94;6064632;23;20019;-69
2022/12/19 00:41:34;;;;;;;53.25;20.95;;;;;;;-7.58;68.96;102225.47;6062888;23;20094;-69
2022/12/19 00:44:06;;;;;;;57.50;22.27;;;;;;;-7.28;68.78;102211.41;6064709;23;20030;-70
2022/12/19 00:46:34;;;;;;;53.40;21.40;;;;;;;-7.48;68.64;102218.47;6063198;23;20046;-69
2022/12/19 00:49:01;;;;;;;54.53;20.50;;;;;;;-7.15;67.94;102215.69;6081124;23;20050;-69
2022/12/19 00:51:32;;;;;;;53.75;21.00;;;;;;;-7.12;67.43;102209.56;6063185;23;20959;-69
2022/12/19 00:53:59;;;;;;;58.80;20.65;;;;;;;-7.19;67.99;102205.25;6063200;23;20027;-68
2022/12/19 00:56:30;;;;;;;53.55;19.75;;;;;;;-7.11;67.46;102196.53;6064701;23;20027;-69
2022/12/19 00:59:01;;;;;;;49.17;19.80;;;;;;;-7.24;67.93;102205.31;6064243;23;20058;-69
2022/12/19 01:01:37;;;;;;;60.25;22.30;;;;;;;-7.16;67.93;102200.88;6064501;23;20464;-69
2022/12/19 01:04:05;;;;;;;58.72;21.58;;;;;;;-6.99;67.44;102189.47;6048442;23;20026;-69
2022/12/19 01:06:52;;;;;;;52.83;20.08;;;;;;;-7.13;67.74;102187.84;6065576;23;20019;-69
2022/12/19 01:09:20;;;;;;;48.13;19.50;;;;;;;-7.21;67.83;102194.84;6066009;23;20487;-70
2022/12/19 01:14:31;;;;;;;50.88;18.55;;;;;;;-7.14;67.81;102175.69;6065995;23;20029;-69
2022/12/19 01:16:58;;;;;;;47.75;19.33;;;;;;;-6.99;67.30;102163.38;6065843;23;25939;-69
2022/12/19 01:19:26;;;;;;;47.95;19.00;;;;;;;-7.15;67.88;102160.06;6088685;23;20023;-68
2022/12/19 01:21:52;;;;;;;59.15;21.80;;;;;;;-6.93;67.65;102160.72;6092560;23;20030;-69
2022/12/19 01:24:19;;;;;;;53.03;20.80;;;;;;;-6.97;67.20;102153.81;6094583;23;20034;-68
2022/12/19 01:26:46;;;;;;;59.90;19.10;;;;;;;-7.24;67.58;102150.53;6093759;23;20027;-69
2022/12/19 01:29:12;;;;;;;51.95;18.33;;;;;;;-7.02;67.14;102148.63;6094340;23;20022;-68
2022/12/19 01:31:39;;;;;;;51.35;19.00;;;;;;;-7.02;67.65;102139.94;6094184;23;20022;-68
2022/12/19 01:34:06;;;;;;;50.13;19.90;;;;;;;-6.91;67.28;102127.66;6095345;23;20089;-69
2022/12/19 01:36:33;;;;;;;48.22;18.70;;;;;;;-6.81;66.90;102112.78;6095218;23;20022;-69
2022/12/19 01:39:05;;;;;;;49.70;19.05;;;;;;;-6.92;67.39;102102.44;6094974;23;20059;-68
2022/12/19 01:41:31;;;;;;;53.30;20.13;;;;;;;-7.13;67.91;102106.97;6093682;23;20022;-69
2022/12/19 01:44:04;;;;;;;52.22;19.45;;;;;;;-7.24;68.34;102108.81;6094868;23;20018;-69
2022/12/19 01:46:38;;;;;;;47.78;18.67;;;;;;;-7.30;68.99;102101.03;6093337;23;20032;-68
2022/12/19 01:49:14;;;;;;;50.17;17.95;;;;;;;-7.38;68.82;102095.88;6094616;23;20022;-70
2022/12/19 01:51:45;;;;;;;43.47;17.95;;;;;;;-7.03;68.28;102101.69;6093089;23;20033;-70
2022/12/19 01:54:20;;;;;;;50.13;19.25;;;;;;;-6.98;67.91;102094.69;6094665;23;20071;-70
2022/12/19 01:56:54;;;;;;;46.00;17.77;;;;;;;-7.15;68.04;102085.28;6094267;23;20024;-70
2022/12/19 01:59:31;;;;;;;52.13;17.60;;;;;;;-7.21;67.85;102082.72;6094646;23;20048;-70
2022/12/19 02:02:06;;;;;;;43.88;18.00;;;;;;;-7.22;68.59;102072.28;6094653;23;20333;-69
2022/12/19 02:04:34;;;;;;;48.50;19.42;;;;;;;-7.02;68.43;102077.31;6093515;23;20084;-69
2022/12/19 02:07:22;;;;;;;49.65;17.48;;;;;;;-7.09;67.82;102068.69;6095016;23;20022;-69
2022/12/19 02:09:55;;;;;;;45.33;17.45;;;;;;;-7.25;68.00;102081.03;6093906;23;20029;-69
2022/12/19 02:12:24;;;;;;;48.70;19.20;;;;;;;-7.18;68.15;102074.00;6091877;23;20022;-69
2022/12/19 02:14:53;;;;;;;51.45;19.17;;;;;;;-7.18;68.17;102077.47;6094423;23;20419;-69
2022/12/19 02:17:41;;;;;;;48.13;19.40;;;;;;;-7.19;67.99;102065.31;6092572;23;20360;-69
2022/12/19 02:20:48;;;;;;;52.42;18.73;;;;;;;-6.86;67.59;102073.69;6037169;23;20019;-70
2022/12/19 02:23:27;;;;;;;50.78;18.80;;;;;;;-7.21;67.86;102067.06;6036601;23;20453;-69
2022/12/19 02:26:03;;;;;;;49.45;19.42;;;;;;;-7.00;67.86;102054.72;6033866;23;20023;-68
2022/12/19 02:28:32;;;;;;;49.22;18.95;;;;;;;-7.33;68.37;102055.88;6037111;23;20208;-69
2022/12/19 02:31:25;;;;;;;49.15;19.23;;;;;;;-7.03;67.92;102044.31;6037037;23;20484;-69
2022/12/19 02:34:17;;;;;;;47.78;18.60;;;;;;;-7.32;68.46;102047.19;6019981;23;20107;-69
2022/12/19 02:37:01;;;;;;;48.97;19.33;;;;;;;-7.14;68.19;102045.28;6035977;23;20043;-69
2022/12/19 02:39:40;;;;;;;52.28;20.50;;;;;;;-7.35;68.17;102037.66;6036992;23;20030;-69
2022/12/19 02:42:10;;;;;;;51.13;19.88;;;;;;;-7.10;67.92;102046.09;6026490;23;20047;-68
2022/12/19 02:44:50;;;;;;;47.05;16.52;;;;;;;-7.46;68.68;102040.34;6034462;23;20050;-68
2022/12/19 02:47:19;;;;;;;50.97;19.05;;;;;;;-7.43;68.63;102055.09;6028394;23;20352;-69
2022/12/19 02:49:45;;;;;;;58.05;21.10;;;;;;;-7.27;68.70;102043.66;6036434;23;20334;-69
2022/12/19 02:52:18;;;;;;;56.72;21.85;;;;;;;-7.42;69.08;102038.59;6035798;23;20046;-69
2022/12/19 02:54:46;;;;;;;55.97;22.65;;;;;;;-7.57;69.49;102038.69;6035976;23;20027;-69
2022/12/19 02:57:27;;;;;;;52.35;19.67;;;;;;;-7.33;68.53;102046.31;6035425;23;20023;-70
2022/12/19 02:59:53;;;;;;;44.07;17.33;;;;;;;-7.23;68.70;102024.50;6027673;23;20015;-69
2022/12/19 03:02:48;;;;;;;53.28;19.98;;;;;;;-7.11;68.59;102034.81;6036634;23;20266;-69
2022/12/19 03:05:32;;;;;;;52.03;20.17;;;;;;;-7.21;67.86;102027.97;6035817;23;20031;-69
2022/12/19 03:08:05;;;;;;;54.65;20.95;;;;;;;-7.22;68.29;102027.97;6035299;23;20027;-69
2022/12/19 03:10:52;;;;;;;47.35;19.75;;;;;;;-7.31;68.18;102028.06;6034272;23;20357;-68
2022/12/19 03:13:36;;;;;;;61.28;23.75;;;;;;;-7.25;68.59;102026.25;6034430;23;20031;-69
2022/12/19 03:16:06;;;;;;;61.63;20.80;;;;;;;-7.16;68.04;102023.53;6035230;23;20348;-68
2022/12/19 03:18:33;;;;;;;58.13;22.40;;;;;;;-7.28;68.47;102025.44;6060430;23;20045;-68
2022/12/19 03:21:36;;;;;;;62.13;22.33;;;;;;;-7.71;69.23;102008.38;6092588;23;20027;-68
2022/12/19 03:24:05;;;;;;;57.60;21.40;;;;;;;-7.51;69.08;102016.06;6033140;23;20087;-68
2022/12/19 03:26:47;;;;;;;55.58;20.83;;;;;;;-7.51;68.82;102020.41;6093043;23;20488;-69
2022/12/19 03:29:16;;;;;;;;;;;;;;;-7.42;69.19;102022.94;6094078;23;20093;-69
2022/12/19 03:31:45;;;;;;;68.20;22.05;;;;;;;-7.33;68.92;102014.16;6092330;23;20338;-69
2022/12/19 03:34:23;;;;;;;62.40;22.67;;;;;;;-7.22;68.36;102015.81;6091723;23;20026;-69
2022/12/19 03:36:58;;;;;;;53.75;21.08;;;;;;;-7.56;68.96;102011.78;6092209;23;20046;-69
2022/12/19 03:39:25;;;;;;;54.20;22.38;;;;;;;-7.28;68.39;102002.81;6093695;23;20050;-69
2022/12/19 03:44:41;;;;;;;59.90;22.02;;;;;;;-7.26;68.69;102019.31;6093427;23;20026;-69
2022/12/19 03:47:21;;;;;;;61.25;24.00;;;;;;;-7.39;68.72;102000.31;6091952;23;20033;-69
2022/12/19 03:49:48;;;;;;;54.75;20.23;;;;;;;-7.18;67.90;102004.47;6092767;23;20093;-69
2022/12/19 03:52:25;;;;;;;67.47;24.73;;;;;;;-7.09;68.13;102005.25;6093298;23;20351;-69
2022/12/19 03:55:05;;;;;;;58.90;21.70;;;;;;;-7.37;68.07;102010.72;6093679;23;20019;-69
2022/12/19 03:58:04;;;;;;;66.60;21.98;;;;;;;-7.23;68.77;102001.03;6092912;23;20067;-69
2022/12/19 04:00:35;;;;;;;60.72;21.08;;;;;;;-7.43;69.01;102000.34;6092425;23;20022;-69
2022/12/19 04:03:03;;;;;;;57.88;22.20;;;;;;;-7.22;68.35;102001.88;6093047;23;20347;-69
2022/12/19 04:05:31;;;;;;;67.53;23.80;;;;;;;-7.31;68.69;102008.06;6093143;23;20026;-69
2022/12/19 04:08:03;;;;;;;54.92;20.92;;;;;;;-7.27;68.92;102001.06;6093000;23;20451;-69
2022/12/19 04:10:37;;;;;;;59.97;23.40;;;;;;;-7.20;68.73;101995.78;6092046;23;20038;-69
2022/12/19 04:13:10;;;;;;;58.28;22.00;;;;;;;-7.19;68.29;101989.66;6091355;23;20026;-69
2022/12/19 04:16:12;;;;;;;60.65;23.02;;;;;;;-7.03;67.54;101994.75;6093316;23;20053;-69
2022/12/19 04:18:44;;;;;;;59.35;23.52;;;;;;;-7.05;68.01;101991.28;6091108;23;20027;-69
2022/12/19 04:21:17;;;;;;;58.78;23.50;;;;;;;-7.43;68.63;101993.41;6091396;23;20014;-69
2022/12/19 04:23:51;;;;;;;55.80;22.58;;;;;;;-7.28;68.58;101987.19;6088940;23;20026;-69
2022/12/19 04:26:20;;;;;;;62.33;25.05;;;;;;;-7.46;68.79;102008.22;6079202;23;20101;-69
2022/12/19 04:28:55;;;;;;;59.22;23.40;;;;;;;-7.42;68.56;102004.69;6091515;23;20023;-68
2022/12/19 04:31:22;;;;;;;62.78;24.65;;;;;;;-7.11;68.71;102006.13;6092348;23;20022;-68
2022/12/19 04:33:48;;;;;;;58.00;23.27;;;;;;;-7.06;68.26;102007.81;6092337;23;20110;-69
2022/12/19 04:36:15;;;;;;;61.47;23.45;;;;;;;-7.29;68.93;102006.31;6092966;23;20022;-69
2022/12/19 04:38:42;;;;;;;58.67;23.77;;;;;;;-7.34;68.77;102008.09;6092668;23;20018;-70
2022/12/19 04:41:08;;;;;;;63.22;25.02;;;;;;;-7.00;68.10;102003.41;6093755;23;20027;-69
2022/12/19 04:43:34;;;;;;;62.17;20.88;;;;;;;-7.14;68.36;101985.28;6093298;23;20089;-69
2022/12/19 04:46:01;;;;;;;59.13;22.38;;;;;;;-7.08;68.26;101986.09;6092328;23;20029;-69
2022/12/19 04:48:28;;;;;;;54.30;22.75;;;;;;;-7.17;68.45;101979.25;6092694;23;20341;-68
2022/12/19 04:50:55;;;;;;;64.90;24.65;;;;;;;-7.12;68.41;101987.88;6091741;23;20022;-68
2022/12/19 04:53:23;;;;;;;60.70;24.00;;;;;;;-7.48;69.20;101989.97;6092955;23;20026;-69
2022/12/19 04:55:49;;;;;;;69.70;27.13;;;;;;;-7.66;69.49;101982.31;6092372;23;20029;-69
2022/12/19 04:58:16;;;;;;;56.97;23.10;;;;;;;-7.02;68.44;101973.00;6091449;23;20451;-69
2022/12/19 05:00:47;;;;;;;59.15;24.30;;;;;;;-7.24;69.18;101962.78;6091875;23;20022;-69
2022/12/19 05:03:13;;;;;;;76.53;27.63;;;;;;;-7.41;69.35;101970.78;6092576;23;20022;-69
2022/12/19 05:05:40;;;;;;;63.67;24.30;;;;;;;-7.01;68.46;101962.56;6093548;23;20019;-69
2022/12/19 05:08:07;;;;;;;63.85;24.23;;;;;;;-7.24;68.76;101965.41;6085521;23;20023;-69
2022/12/19 05:10:35;;;;;;;58.42;22.02;;;;;;;-7.29;68.57;101972.44;6092759;23;20019;-69
2022/12/19 05:13:01;;;;;;;58.17;22.42;;;;;;;-7.18;69.23;101964.50;6092878;23;20101;-70
2022/12/19 05:15:28;;;;;;;65.05;24.25;;;;;;;-7.34;69.79;101971.59;6092577;23;20030;-68
2022/12/19 05:17:56;;;;;;;62.75;23.65;;;;;;;-7.26;68.81;101956.72;6092783;23;20455;-69
2022/12/19 05:20:23;;;;;;;65.75;25.15;;;;;;;-7.27;69.63;101967.19;6092673;23;20030;-69
2022/12/19 05:22:49;;;;;;;54.15;22.15;;;;;;;-7.65;70.09;101958.84;6092825;23;20018;-69
2022/12/19 05:25:16;;;;;;;61.13;23.00;;;;;;;-7.29;69.84;101963.72;6093134;23;20050;-70
2022/12/19 05:27:42;;;;;;;54.90;23.05;;;;;;;-7.11;68.44;101964.41;6092060;23;20105;-67
2022/12/19 05:30:09;;;;;;;65.63;23.85;;;;;;;-7.41;69.45;101965.56;6092978;23;20106;-67
2022/12/19 05:32:36;;;;;;;62.92;23.75;;;;;;;-7.20;69.05;101956.66;6091719;23;20148;-68
2022/12/19 05:35:02;;;;;;;62.67;24.88;;;;;;;-7.42;69.31;101947.34;6092988;23;20057;-68
2022/12/19 05:37:29;;;;;;;59.20;23.42;;;;;;;-7.26;69.48;101950.66;6092012;23;20026;-68
2022/12/19 05:39:55;;;;;;;57.42;23.38;;;;;;;-7.27;69.45;101951.53;6092602;23;20057;-67
2022/12/19 05:42:25;;;;;;;60.15;24.17;;;;;;;-7.43;70.06;101958.63;6092960;23;20432;-68
2022/12/19 05:44:51;;;;;;;57.25;22.35;;;;;;;-7.25;69.64;101950.66;6092286;23;20077;-68
2022/12/19 05:47:20;;;;;;;59.42;24.67;;;;;;;-7.03;69.40;101951.25;6096156;23;20022;-67
2022/12/19 05:49:47;;;;;;;57.53;23.17;;;;;;;-7.08;69.07;101946.97;6093187;23;20026;-68
2022/12/19 05:52:13;;;;;;;62.22;25.13;;;;;;;-7.11;69.92;101933.09;6094480;23;20022;-68
2022/12/19 05:54:40;;;;;;;58.78;21.88;;;;;;;-7.15;69.46;101931.41;6093900;23;20456;-68
2022/12/19 05:57:06;;;;;;;56.63;24.02;;;;;;;-7.07;69.07;101928.72;6093526;23;20128;-68
2022/12/19 05:59:33;;;;;;;67.93;25.13;;;;;;;-7.16;69.42;101916.63;6094674;23;20053;-68
2022/12/19 06:01:59;;;;;;;62.25;25.05;;;;;;;-7.00;68.99;101919.94;6094508;23;20415;-68
2022/12/19 06:04:26;;;;;;;56.78;22.67;;;;;;;-7.30;69.79;101918.53;6094947;23;20069;-67
2022/12/19 06:06:53;;;;;;;59.22;21.98;;;;;;;-6.98;68.74;101915.56;6094537;23;20050;-67
2022/12/19 06:09:19;;;;;;;61.75;23.92;;;;;;;-7.12;69.54;101920.06;6094602;23;20030;-68
2022/12/19 06:11:46;;;;;;;62.30;23.65;;;;;;;-6.90;69.02;101918.06;6094689;23;20037;-68
2022/12/19 06:14:13;;;;;;;53.92;23.00;;;;;;;-6.98;69.36;101907.75;6094516;23;20097;-67
2022/12/19 06:16:39;;;;;;;57.58;23.65;;;;;;;-6.75;68.89;101904.81;6093051;23;20029;-67
2022/12/19 06:19:06;;;;;;;56.80;24.00;;;;;;;-6.95;69.05;101905.06;6093657;23;20459;-68
2022/12/19 06:21:32;;;;;;;58.60;22.45;;;;;;;-6.83;68.64;101890.16;6068019;23;20109;-69
2022/12/19 06:23:59;;;;;;;56.63;22.42;;;;;;;-6.89;68.49;101886.72;6094654;23;20085;-68
2022/12/19 06:26:26;;;;;;;58.38;23.90;;;;;;;-6.53;68.04;101874.09;6094719;23;20026;-68
2022/12/19 06:28:54;;;;;;;66.10;24.25;;;;;;;-6.88;68.23;101874.56;6094949;23;20032;-68
2022/12/19 06:31:23;;;;;;;52.15;22.77;;;;;;;-7.00;68.68;101877.34;6093597;23;20111;-69
2022/12/19 06:33:50;;;;;;;71.53;25.52;;;;;;;-6.91;69.10;101871.97;6094725;23;20053;-68
2022/12/19 06:36:24;;;;;;;62.53;23.98;;;;;;;-6.84;68.69;101873.66;6094465;23;20460;-68
2022/12/19 06:38:52;;;;;;;57.15;21.00;;;;;;;-7.06;68.87;101864.38;6093728;23;20081;-69
2022/12/19 06:44:06;;;;;;;60.95;23.33;;;;;;;-6.82;68.79;101877.09;6093153;23;20026;-68
2022/12/19 06:46:34;;;;;;;51.92;22.52;;;;;;;-6.57;68.39;101869.75;6093133;23;20415;-67
2022/12/19 06:49:00;;;;;;;55.20;22.95;;;;;;;-6.66;67.76;101872.53;6093774;23;20049;-67
2022/12/19 06:51:27;;;;;;;55.35;22.30;;;;;;;-6.78;68.10;101873.53;6093824;23;20029;-69
2022/12/19 06:53:54;;;;;;;64.35;23.80;;;;;;;-6.38;67.25;101872.97;6093435;23;20026;-68
2022/12/19 06:56:21;;;;;;;60.72;21.48;;;;;;;-6.64;67.58;101886.41;6093703;23;20023;-69
2022/12/19 06:58:48;;;;;;;54.50;22.13;;;;;;;-6.32;67.22;101888.56;6093388;23;20030;-68
2022/12/19 07:01:19;;;;;;;60.03;21.90;;;;;;;-6.44;66.93;101893.94;6092555;23;20345;-69
2022/12/19 07:03:59;;;;;;;51.17;22.08;;;;;;;-6.69;66.82;101891.69;6080340;23;20077;-70
2022/12/19 07:06:49;;;;;;;54.78;21.60;;;;;;;-6.32;66.21;101904.22;6077204;23;20022;-70
2022/12/19 07:09:22;;;;;;;52.88;20.40;;;;;;;-6.40;66.20;101893.00;6080695;23;20033;-70
2022/12/19 07:11:59;;;;;;;52.80;21.23;;;;;;;-6.60;66.35;101889.81;6092929;23;20022;-71
2022/12/19 07:14:37;;;;;;;58.15;21.42;;;;;;;-6.42;65.85;101895.66;6085914;23;20081;-71
2022/12/19 07:17:08;;;;;;;59.05;22.20;;;;;;;-6.21;66.20;101886.63;6076767;23;20097;-70
2022/12/19 07:19:57;;;;;;;53.33;21.85;;;;;;;-6.31;65.82;101881.59;6068442;23;20026;-70
2022/12/19 07:22:50;;;;;;;;;;;;;;;;;;;;;
2022/12/19 07:26:29;;;;;;;62.35;22.08;;;;;;;-5.94;65.25;101884.44;6036837;23;20049;-70
2022/12/19 07:28:59;;;;;;;50.85;21.83;;;;;;;-6.36;65.79;101872.94;6044078;23;20018;-70
2022/12/19 07:31:44;;;;;;;49.38;20.58;;;;;;;-6.07;64.68;101885.56;6064685;23;20029;-70
2022/12/19 07:34:15;;;;;;;61.28;21.75;;;;;;;-6.17;65.32;101883.09;6049349;23;20022;-71
2022/12/19 07:36:57;;;;;;;56.53;20.65;;;;;;;-6.04;65.13;101875.91;6061647;23;20093;-70
2022/12/19 07:39:48;;;;;;;53.38;21.98;;;;;;;-6.16;65.45;101876.09;6061747;23;20023;-70
2022/12/19 07:42:29;;;;;;;;;;;;;;;;;;;;;
2022/12/19 07:45:07;;;;;;;50.03;20.40;;;;;;;-6.01;64.52;101882.81;6065766;23;20415;-70
2022/12/19 07:47:39;;;;;;;50.95;20.15;;;;;;;-5.88;63.90;101894.78;6073463;23;20507;-71
2022/12/19 07:50:09;;;;;;;55.65;22.33;;;;;;;-5.80;64.26;101887.69;6063519;23;20392;-71
2022/12/19 07:52:43;;;;;;;60.35;22.63;;;;;;;-5.80;63.89;101876.34;6058767;23;20456;-70
2022/12/19 07:55:10;;;;;;;49.25;20.55;;;;;;;-5.58;63.74;101866.41;6028867;23;20375;-71
2022/12/19 07:57:38;;;;;;;55.85;22.65;;;;;;;-6.03;64.39;101859.34;6065038;23;20456;-70
2022/12/19 08:00:07;;;;;;;56.58;21.77;;;;;;;-5.52;63.36;101880.22;6062161;23;20070;-70
2022/12/19 08:02:34;;;;;;;50.22;20.60;;;;;;;-5.89;64.21;101859.09;6081794;23;20015;-71
2022/12/19 08:05:05;;;;;;;47.10;18.23;;;;;;;-5.60;63.69;101873.38;6065753;23;20018;-70
2022/12/19 08:07:32;;;;;;;54.60;20.35;;;;;;;-5.80;64.03;101861.56;6068471;23;20119;-70
2022/12/19 08:10:00;;;;;;;51.00;19.45;;;;;;;-5.63;63.94;101869.06;6060137;23;20025;-70
2022/12/19 08:12:27;;;;;;;48.17;18.75;;;;;;;-5.55;63.71;101868.97;6063670;23;20322;-70
2022/12/19 08:14:57;;;;;;;52.65;20.85;;;;;;;-5.55;63.87;101859.34;6061598;23;20019;-71
2022/12/19 08:17:25;;;;;;;49.93;20.50;;;;;;;-5.53;63.64;101859.31;6061671;23;20102;-71
2022/12/19 08:19:52;;;;;;;52.92;20.20;;;;;;;-5.36;63.30;101846.78;6071542;23;20251;-71
2022/12/19 08:22:19;;;;;;;51.58;20.30;;;;;;;-5.31;62.47;101844.09;6086796;23;20030;-71
2022/12/19 08:24:46;;;;;;;51.88;20.08;;;;;;;-5.39;63.00;101844.22;6079118;23;20035;-71
2022/12/19 08:27:15;;;;;;;50.75;20.20;;;;;;;-5.47;63.13;101843.50;6088313;23;20018;-71
2022/12/19 08:29:42;;;;;;;50.72;20.60;;;;;;;-5.42;62.53;101836.47;6076939;23;20018;-71
2022/12/19 08:32:12;;;;;;;47.55;19.58;;;;;;;-5.37;62.58;101844.19;6074931;23;20379;-70
2022/12/19 08:34:56;;;;;;;49.97;19.10;;;;;;;-5.09;61.83;101854.97;6063174;23;20109;-71
2022/12/19 08:37:32;;;;;;;53.55;20.63;;;;;;;-4.89;61.53;101844.06;6090217;23;20078;-71
2022/12/19 08:40:01;;;;;;;51.85;20.30;;;;;;;-5.04;62.06;101855.72;6078409;23;20019;-71
2022/12/19 08:42:33;;;;;;;49.15;19.80;;;;;;;-4.96;61.55;101851.19;6075994;23;20359;-71
2022/12/19 08:45:01;;;;;;;53.50;19.23;;;;;;;-4.91;61.71;101843.22;6051791;23;20018;-70
2022/12/19 08:47:28;;;;;;;51.53;20.85;;;;;;;-4.97;62.01;101844.22;6064350;23;20019;-70
2022/12/19 08:49:55;;;;;;;50.38;19.13;;;;;;;-5.05;62.11;101830.44;6092551;23;20038;-71
2022/12/19 08:52:22;;;;;;;50.58;19.98;;;;;;;-5.13;62.20;101817.53;6090759;23;20081;-71
2022/12/19 08:54:49;;;;;;;50.40;19.75;;;;;;;-4.89;61.72;101816.13;6090345;23;20097;-71
2022/12/19 08:57:16;;;;;;;54.95;20.95;;;;;;;-4.97;62.00;101804.97;6089663;23;20061;-71
2022/12/19 08:59:43;;;;;;;46.45;19.30;;;;;;;-4.91;61.81;101796.13;6091344;23;20328;-71
2022/12/19 09:02:17;;;;;;;58.50;23.33;;;;;;;-4.95;62.19;101795.31;6088995;23;20042;-71
2022/12/19 09:04:44;;;;;;;43.90;18.95;;;;;;;-4.66;61.42;101794.66;6077340;23;20429;-71
2022/12/19 09:07:30;;;;;;;50.63;20.45;;;;;;;-4.79;61.56;101791.47;6087155;23;20022;-71
2022/12/19 09:10:06;;;;;;;54.35;20.95;;;;;;;-4.85;62.14;101786.38;6090320;23;20029;-71
2022/12/19 09:12:33;;;;;;;60.15;20.88;;;;;;;-4.83;62.13;101788.94;6091128;23;20470;-71
2022/12/19 09:15:00;;;;;;;46.47;20.30;;;;;;;-4.51;61.44;101785.59;6089498;23;20389;-71
2022/12/19 09:17:27;;;;;;;56.17;20.45;;;;;;;-4.50;60.94;101774.19;6092856;23;20029;-71
2022/12/19 09:19:55;;;;;;;51.38;20.80;;;;;;;-4.66;61.74;101770.22;6088013;23;20396;-71
2022/12/19 09:22:28;;;;;;;49.35;21.00;;;;;;;-4.69;61.86;101772.91;6091902;23;20419;-71
2022/12/19 09:24:58;;;;;;;50.13;20.30;;;;;;;-4.60;61.47;101772.69;6074333;23;20030;-71
2022/12/19 09:27:33;;;;;;;53.25;19.50;;;;;;;-4.40;61.13;101767.84;6085355;23;20333;-71
2022/12/19 09:30:23;;;;;;;44.13;18.33;;;;;;;-4.23;60.69;101770.03;6092685;23;20026;-71
2022/12/19 09:33:04;;;;;;;47.33;18.08;;;;;;;-4.34;60.93;101762.44;6090619;23;20105;-71
2022/12/19 09:35:34;;;;;;;57.00;21.27;;;;;;;-4.44;61.10;101750.47;6093192;23;20041;-71
2022/12/19 09:38:02;;;;;;;54.67;20.80;;;;;;;-4.35;60.92;101747.59;6092876;23;20025;-71
2022/12/19 09:40:42;;;;;;;52.35;19.10;;;;;;;-4.29;61.43;101738.75;6093687;23;20023;-71
2022/12/19 09:43:29;;;;;;;48.97;18.58;;;;;;;-4.26;61.08;101743.91;6077399;23;20076;-72
2022/12/19 09:46:30;;;;;;;41.83;17.20;;;;;;;-4.19;60.93;101734.13;6092816;23;20049;-71
2022/12/19 09:49:09;;;;;;;49.47;20.30;;;;;;;-4.25;61.19;101725.50;6092728;23;20034;-71
2022/12/19 09:52:04;;;;;;;48.92;18.75;;;;;;;-4.02;60.93;101724.03;6090445;23;20026;-71
2022/12/19 09:54:40;;;;;;;49.63;18.40;;;;;;;-3.93;61.17;101720.28;6088215;23;20093;-71
2022/12/19 09:57:15;;;;;;;47.80;19.45;;;;;;;-3.99;60.96;101720.50;6076432;23;20118;-71
2022/12/19 09:59:56;;;;;;;54.22;20.42;;;;;;;-3.85;60.63;101713.94;6078718;23;20072;-72
2022/12/19 10:02:47;;;;;;;50.78;18.95;;;;;;;-4.06;61.31;101712.78;6057253;23;20479;-71
2022/12/19 10:05:26;;;;;;;41.95;18.77;;;;;;;-3.61;60.84;101704.53;6078118;23;20049;-71
2022/12/19 10:08:48;;;;;;;47.20;19.08;;;;;;;-3.90;61.17;101684.38;6089799;23;20022;-71
2022/12/19 10:11:53;;;;;;;48.40;20.58;;;;;;;-3.69;60.27;101693.38;6092478;23;20056;-72
2022/12/19 10:14:51;;;;;;;47.88;19.85;;;;;;;-3.47;60.04;101696.25;6091268;23;20078;-71
2022/12/19 10:17:27;;;;;;;46.05;20.00;;;;;;;-3.54;60.44;101697.34;6066846;23;20034;-71
2022/12/19 10:20:24;;;;;;;48.88;19.58;;;;;;;-3.47;60.33;101687.50;6082007;23;20337;-72
2022/12/19 10:22:57;;;;;;;57.47;19.92;;;;;;;-3.80;60.81;101675.34;6029115;23;20022;-72
2022/12/19 10:25:38;;;;;;;47.15;18.77;;;;;;;-3.30;59.90;101675.59;6064429;23;20025;-72
2022/12/19 10:28:18;;;;;;;49.70;21.35;;;;;;;-3.67;60.37;101685.47;6063219;23;20019;-72
2022/12/19 10:31:01;;;;;;;58.20;19.55;;;;;;;-3.17;59.67;101669.94;6064415;23;20348;-71
2022/12/19 10:34:12;;;;;;;47.72;19.88;;;;;;;-3.25;59.81;101658.84;6063401;23;20049;-72
2022/12/19 10:36:46;;;;;;;49.43;18.93;;;;;;;-3.17;59.63;101652.44;6064256;23;20448;-71
2022/12/19 10:39:44;;;;;;;43.40;18.40;;;;;;;-3.09;59.00;101657.44;6060954;23;20326;-71
2022/12/19 10:42:27;;;;;;;49.05;21.00;;;;;;;-2.84;59.14;101655.72;6065071;23;20023;-72
2022/12/19 10:45:09;;;;;;;46.10;20.08;;;;;;;-2.94;59.07;101637.72;6061937;23;20445;-71
2022/12/19 10:47:37;;;;;;;41.42;18.23;;;;;;;-3.08;59.52;101633.75;6070603;23;20050;-72
2022/12/19 10:50:04;;;;;;;51.17;18.38;;;;;;;-3.11;58.97;101633.00;6063789;23;20022;-72
2022/12/19 10:53:07;;;;;;;52.65;19.40;;;;;;;-2.89;58.48;101625.25;6058147;23;20082;-72
2022/12/19 10:56:03;;;;;;;;;;;;;;;-2.85;58.29;101621.66;6082725;23;20134;-72
2022/12/19 10:59:00;;;;;;;43.90;18.15;;;;;;;-2.88;58.57;101619.97;6021987;23;19925;-72
2022/12/19 11:01:40;;;;;;;40.25;17.02;;;;;;;-2.91;58.87;101617.47;6077587;23;20046;-72
2022/12/19 11:04:30;;;;;;;48.20;18.02;;;;;;;-2.63;58.45;101606.00;6052134;23;20082;-72
2022/12/19 11:07:26;;;;;;;40.83;17.73;;;;;;;-2.82;58.66;101603.16;6051906;23;20075;-73
2022/12/19 11:09:53;;;;;;;42.63;18.27;;;;;;;-2.64;58.59;101596.41;6062077;23;20027;-73
2022/12/19 11:12:52;;;;;;;45.05;17.50;;;;;;;-2.85;58.43;101584.88;6060497;23;20360;-72
2022/12/19 11:15:47;;;;;;;44.85;18.33;;;;;;;-2.65;58.66;101582.44;6062168;23;20019;-72
2022/12/19 11:18:47;;;;;;;44.67;17.70;;;;;;;-2.55;58.61;101575.06;6072738;23;20105;-73
2022/12/19 11:21:35;;;;;;;41.45;17.88;;;;;;;-2.60;59.81;101577.00;6053869;23;20045;-73
2022/12/19 11:24:28;;;;;;;42.78;18.60;;;;;;;-2.31;59.98;101573.31;6076588;23;20023;-73
2022/12/19 11:27:52;;;;;;;43.33;18.63;;;;;;;-2.42;60.93;101568.44;6075429;23;20022;-73
2022/12/19 11:30:40;;;;;;;39.97;17.02;;;;;;;-2.35;61.33;101564.69;6089879;23;20027;-73
2022/12/19 11:33:27;;;;;;;41.55;18.77;;;;;;;-2.37;61.29;101571.78;6091780;23;20039;-73
2022/12/19 11:36:07;;;;;;;;;;;;;;;;;;;;;
2022/12/19 11:38:52;;;;;;;44.45;18.67;;;;;;;-2.47;63.81;101561.66;6090321;23;20452;-74
2022/12/19 11:42:00;;;;;;;48.42;18.83;;;;;;;-2.44;63.62;101561.53;6088314;23;20059;-73
2022/12/19 11:45:06;;;;;;;48.97;18.73;;;;;;;-2.41;65.03;101558.78;6032599;23;20045;-74
2022/12/19 11:47:48;;;;;;;48.17;18.45;;;;;;;-2.54;65.35;101555.78;6018762;23;20022;-73
2022/12/19 11:50:26;;;;;;;41.17;17.83;;;;;;;-2.49;65.58;101548.56;6064616;23;20027;-74
2022/12/19 11:53:29;;;;;;;46.97;20.50;;;;;;;-2.56;66.55;101544.44;6063863;23;20022;-74
2022/12/19 11:56:20;;;;;;;43.55;19.90;;;;;;;-2.21;66.50;101537.03;6051990;23;20022;-74
2022/12/19 11:58:52;;;;;;;44.03;20.25;;;;;;;-2.24;67.27;101535.38;6082823;23;20495;-74